Time;durP1;ratioP1;P1;durP2;ratioP2;P2;SDS_P1;SDS_P2;PMS_P1;PMS_P2;Temp;Humidity;BMP_temperature;BMP_pressure;BME280_temperature;BME280_humidity;BME280_pressure;Samples;Min_cycle;Max_cycle;Signal;HPM_P1;HPM_P2
2024/03/22 00:01:08;;;;;;;;;31.67;31.00;;;;;;;;5084458;27;45346;-56
2024/03/22 00:03:33;;;;;;;;;36.00;32.33;;;;;;;;5088108;27;45237;-57
2024/03/22 00:05:58;;;;;;;;;40.00;34.33;;;;;;;;5085084;27;47251;-56
2024/03/22 00:08:23;;;;;;;;;38.67;36.00;;;;;;;;5087701;27;45359;-56
2024/03/22 00:10:49;;;;;;;;;39.33;33.33;;;;;;;;5084931;27;45416;-56
2024/03/22 00:13:14;;;;;;;;;38.00;33.33;;;;;;;;5086440;27;45559;-56
2024/03/22 00:15:39;;;;;;;;;43.00;34.33;;;;;;;;5081869;27;45452;-56
2024/03/22 00:18:04;;;;;;;;;36.00;32.67;;;;;;;;5086575;27;45593;-56
2024/03/22 00:20:29;;;;;;;;;39.33;32.00;;;;;;;;5084959;27;45678;-56
2024/03/22 00:22:54;;;;;;;;;38.67;32.33;;;;;;;;5087345;27;45369;-56
2024/03/22 00:25:20;;;;;;;;;37.00;34.33;;;;;;;;5083571;27;46128;-56
2024/03/22 00:27:45;;;;;;;;;36.33;33.33;;;;;;;;5083363;27;45574;-57
2024/03/22 00:30:10;;;;;;;;;40.33;35.00;;;;;;;;5075442;27;45397;-55
2024/03/22 00:32:35;;;;;;;;;37.00;33.00;;;;;;;;5080853;27;45161;-57
2024/03/22 00:35:00;;;;;;;;;50.33;38.00;;;;;;;;5083065;27;45946;-56
2024/03/22 00:37:26;;;;;;;;;36.67;31.67;;;;;;;;5076060;27;45339;-56
2024/03/22 00:39:51;;;;;;;;;41.67;35.67;;;;;;;;5079838;27;45295;-56
2024/03/22 00:42:16;;;;;;;;;40.67;35.67;;;;;;;;5085523;27;45491;-56
2024/03/22 00:44:41;;;;;;;;;35.00;33.00;;;;;;;;5075220;27;46243;-56
2024/03/22 00:47:06;;;;;;;;;44.33;35.00;;;;;;;;5078220;27;45404;-56
2024/03/22 00:49:31;;;;;;;;;38.67;34.33;;;;;;;;5085132;27;45558;-56
2024/03/22 00:51:57;;;;;;;;;40.67;34.00;;;;;;;;5086983;27;45360;-56
2024/03/22 00:54:22;;;;;;;;;40.33;35.33;;;;;;;;5083188;27;45560;-56
2024/03/22 00:56:48;;;;;;;;;35.67;34.33;;;;;;;;5083623;27;45403;-55
2024/03/22 00:59:13;;;;;;;;;34.00;32.33;;;;;;;;5089487;27;45620;-57
2024/03/22 01:01:38;;;;;;;;;46.33;37.33;;;;;;;;5080651;27;45358;-55
2024/03/22 01:04:04;;;;;;;;;39.67;32.33;;;;;;;;5087765;27;46977;-56
2024/03/22 01:06:29;;;;;;;;;36.33;32.67;;;;;;;;5088490;27;45295;-56
2024/03/22 01:08:54;;;;;;;;;40.00;35.00;;;;;;;;5091308;27;45357;-55
2024/03/22 01:11:19;;;;;;;;;42.00;35.33;;;;;;;;5083194;27;45224;-55
2024/03/22 01:13:44;;;;;;;;;36.67;34.00;;;;;;;;5086081;27;45570;-55
2024/03/22 01:16:10;;;;;;;;;40.67;35.33;;;;;;;;5086539;27;45401;-56
2024/03/22 01:18:38;;;;;;;;;43.33;35.00;;;;;;;;5085359;27;45306;-56
2024/03/22 01:21:04;;;;;;;;;39.00;33.67;;;;;;;;5088045;27;45283;-56
2024/03/22 01:23:30;;;;;;;;;48.67;38.33;;;;;;;;5089833;27;45492;-56
2024/03/22 01:25:55;;;;;;;;;36.00;33.67;;;;;;;;5087819;27;45399;-56
2024/03/22 01:28:20;;;;;;;;;43.67;35.67;;;;;;;;5084216;27;45545;-56
2024/03/22 01:30:45;;;;;;;;;46.00;36.33;;;;;;;;5082475;27;45509;-56
2024/03/22 01:33:10;;;;;;;;;44.33;38.00;;;;;;;;5088441;27;46293;-56
2024/03/22 01:35:36;;;;;;;;;44.67;36.00;;;;;;;;5081491;27;45532;-56
2024/03/22 01:38:01;;;;;;;;;37.00;34.00;;;;;;;;5089613;27;45285;-56
2024/03/22 01:40:26;;;;;;;;;43.00;34.67;;;;;;;;5087183;27;45394;-56
2024/03/22 01:42:59;;;;;;;;;46.00;38.67;;;;;;;;5089440;27;46540;-56
2024/03/22 01:45:24;;;;;;;;;49.67;40.33;;;;;;;;5074006;27;45436;-56
2024/03/22 01:47:53;;;;;;;;;51.00;37.67;;;;;;;;5090474;27;45332;-55
2024/03/22 01:50:19;;;;;;;;;50.00;39.33;;;;;;;;5087351;27;45337;-56
2024/03/22 01:52:44;;;;;;;;;44.00;37.67;;;;;;;;5084753;27;45344;-56
2024/03/22 01:55:09;;;;;;;;;46.33;38.67;;;;;;;;5087124;27;45363;-56
2024/03/22 01:57:35;;;;;;;;;40.67;35.00;;;;;;;;5088634;27;45433;-56
2024/03/22 02:00:01;;;;;;;;;38.33;35.33;;;;;;;;5087730;27;45367;-56
2024/03/22 02:02:26;;;;;;;;;45.00;36.00;;;;;;;;5081715;27;45823;-56
2024/03/22 02:04:51;;;;;;;;;45.00;38.00;;;;;;;;5087248;27;45844;-56
2024/03/22 02:07:17;;;;;;;;;48.33;37.33;;;;;;;;5086436;27;45722;-56
2024/03/22 02:09:42;;;;;;;;;36.00;32.67;;;;;;;;5079414;27;45293;-56
2024/03/22 02:12:08;;;;;;;;;41.33;36.33;;;;;;;;5086827;27;46060;-57
2024/03/22 02:14:33;;;;;;;;;46.00;37.00;;;;;;;;5085814;27;45333;-56
2024/03/22 02:16:58;;;;;;;;;48.00;37.33;;;;;;;;5077781;28;45365;-56
2024/03/22 02:19:24;;;;;;;;;47.33;38.67;;;;;;;;5087968;27;45222;-57
2024/03/22 02:21:49;;;;;;;;;50.00;40.33;;;;;;;;5088546;27;46431;-56
2024/03/22 02:24:14;;;;;;;;;49.67;40.00;;;;;;;;5087255;27;45321;-56
2024/03/22 02:26:39;;;;;;;;;48.67;39.00;;;;;;;;5084677;27;45321;-56
2024/03/22 02:29:04;;;;;;;;;46.33;38.67;;;;;;;;5087502;27;45533;-56
2024/03/22 02:31:29;;;;;;;;;44.67;38.67;;;;;;;;5090228;27;46703;-56
2024/03/22 02:33:55;;;;;;;;;46.00;36.67;;;;;;;;5080350;27;45359;-56
2024/03/22 02:36:20;;;;;;;;;49.33;41.00;;;;;;;;5082612;27;45314;-56
2024/03/22 02:38:45;;;;;;;;;46.33;38.00;;;;;;;;5078151;27;45518;-55
2024/03/22 02:41:10;;;;;;;;;50.00;40.00;;;;;;;;5084944;27;45366;-56
2024/03/22 02:43:35;;;;;;;;;46.67;36.67;;;;;;;;5086519;27;46568;-56
2024/03/22 02:46:01;;;;;;;;;45.33;37.00;;;;;;;;5077709;27;45339;-56
2024/03/22 02:48:27;;;;;;;;;43.33;37.00;;;;;;;;5079551;27;45790;-57
2024/03/22 02:50:55;;;;;;;;;44.00;36.67;;;;;;;;5080037;27;46122;-56
2024/03/22 02:53:20;;;;;;;;;49.00;39.00;;;;;;;;5082563;27;45511;-56
2024/03/22 02:55:45;;;;;;;;;47.00;39.33;;;;;;;;5079902;27;45527;-56
2024/03/22 02:58:10;;;;;;;;;45.33;38.00;;;;;;;;5081550;27;45262;-56
2024/03/22 03:00:38;;;;;;;;;42.33;36.67;;;;;;;;5084566;27;45556;-56
2024/03/22 03:03:06;;;;;;;;;44.67;37.33;;;;;;;;5083712;27;45318;-56
2024/03/22 03:05:32;;;;;;;;;46.67;37.00;;;;;;;;5080117;27;45454;-56
2024/03/22 03:07:57;;;;;;;;;42.00;36.67;;;;;;;;5084855;27;45378;-56
2024/03/22 03:10:22;;;;;;;;;46.00;38.00;;;;;;;;5088610;27;47004;-56
2024/03/22 03:12:47;;;;;;;;;44.33;34.67;;;;;;;;5084816;27;45340;-56
2024/03/22 03:15:12;;;;;;;;;45.00;37.67;;;;;;;;5090560;27;45352;-56
2024/03/22 03:17:38;;;;;;;;;45.67;38.33;;;;;;;;5085479;27;45323;-56
2024/03/22 03:20:07;;;;;;;;;48.67;37.33;;;;;;;;5085008;27;46142;-55
2024/03/22 03:22:32;;;;;;;;;49.33;39.00;;;;;;;;5083934;27;45913;-56
2024/03/22 03:24:58;;;;;;;;;48.67;40.00;;;;;;;;5090365;27;45266;-56
2024/03/22 03:27:23;;;;;;;;;48.67;40.67;;;;;;;;5084802;27;45382;-56
2024/03/22 03:29:48;;;;;;;;;47.67;35.67;;;;;;;;5089983;27;45448;-56
2024/03/22 03:32:13;;;;;;;;;52.33;40.00;;;;;;;;5084138;27;45437;-56
2024/03/22 03:34:38;;;;;;;;;46.00;37.33;;;;;;;;5089730;27;45228;-56
2024/03/22 03:37:03;;;;;;;;;44.33;37.33;;;;;;;;5084365;27;45203;-56
2024/03/22 03:39:31;;;;;;;;;50.33;36.00;;;;;;;;5089295;27;46337;-57
2024/03/22 03:41:56;;;;;;;;;47.00;39.00;;;;;;;;5084632;27;45349;-56
2024/03/22 03:44:22;;;;;;;;;48.67;37.67;;;;;;;;5083791;27;45323;-57
2024/03/22 03:46:47;;;;;;;;;47.33;39.00;;;;;;;;5076156;27;45427;-57
2024/03/22 03:49:12;;;;;;;;;44.33;38.00;;;;;;;;5088158;27;45696;-56
2024/03/22 03:51:37;;;;;;;;;47.33;39.00;;;;;;;;5084184;27;45390;-56
2024/03/22 03:54:03;;;;;;;;;54.25;41.75;;;;;;;;5083548;27;45590;-55
2024/03/22 03:56:28;;;;;;;;;53.75;43.50;;;;;;;;5084122;27;45305;-56
2024/03/22 03:58:54;;;;;;;;;46.00;38.33;;;;;;;;5088703;27;46991;-55
2024/03/22 04:01:19;;;;;;;;;44.33;36.00;;;;;;;;5080833;27;46192;-56
2024/03/22 04:03:44;;;;;;;;;45.33;38.00;;;;;;;;5083516;27;45532;-56
2024/03/22 04:06:09;;;;;;;;;48.33;38.67;;;;;;;;5083705;27;45229;-56
2024/03/22 04:08:34;;;;;;;;;52.33;37.33;;;;;;;;5089179;27;46539;-56
2024/03/22 04:11:00;;;;;;;;;48.00;39.33;;;;;;;;5084107;27;45337;-55
2024/03/22 04:13:25;;;;;;;;;48.00;37.33;;;;;;;;5088445;27;45344;-56
2024/03/22 04:15:51;;;;;;;;;48.00;39.00;;;;;;;;5078986;27;45360;-55
2024/03/22 04:18:16;;;;;;;;;50.00;38.00;;;;;;;;5087311;27;47061;-56
2024/03/22 04:20:42;;;;;;;;;50.33;38.33;;;;;;;;5083857;27;45436;-55
2024/03/22 04:23:07;;;;;;;;;46.00;38.00;;;;;;;;5087064;27;45711;-57
2024/03/22 04:25:32;;;;;;;;;47.67;37.00;;;;;;;;5074539;27;46800;-55
2024/03/22 04:27:58;;;;;;;;;48.33;40.00;;;;;;;;5076737;27;45311;-56
2024/03/22 04:30:23;;;;;;;;;45.33;39.33;;;;;;;;5082828;27;45293;-55
2024/03/22 04:32:48;;;;;;;;;48.67;40.00;;;;;;;;5088295;27;45563;-55
2024/03/22 04:35:13;;;;;;;;;46.33;37.67;;;;;;;;5083096;27;45208;-56
2024/03/22 04:37:38;;;;;;;;;43.67;38.00;;;;;;;;5088176;27;45436;-55
2024/03/22 04:40:04;;;;;;;;;43.33;35.00;;;;;;;;5082000;27;45337;-55
2024/03/22 04:42:29;;;;;;;;;47.67;39.00;;;;;;;;5088797;27;45274;-55
2024/03/22 04:44:54;;;;;;;;;43.67;38.00;;;;;;;;5075735;27;45309;-56
2024/03/22 04:47:20;;;;;;;;;50.33;40.00;;;;;;;;5081332;27;46723;-55
2024/03/22 04:49:45;;;;;;;;;42.67;36.33;;;;;;;;5085663;27;45401;-57
2024/03/22 04:52:10;;;;;;;;;42.33;35.67;;;;;;;;5086881;27;45222;-55
2024/03/22 04:54:35;;;;;;;;;46.00;37.33;;;;;;;;5084206;27;45160;-55
2024/03/22 04:57:00;;;;;;;;;43.67;37.33;;;;;;;;5087784;27;45859;-55
2024/03/22 04:59:25;;;;;;;;;53.67;41.67;;;;;;;;5085663;27;45368;-55
2024/03/22 05:01:51;;;;;;;;;50.67;40.00;;;;;;;;5086303;27;45461;-55
2024/03/22 05:04:16;;;;;;;;;47.67;39.33;;;;;;;;5079257;27;45421;-56
2024/03/22 05:06:41;;;;;;;;;47.67;38.00;;;;;;;;5081293;27;46110;-55
2024/03/22 05:09:10;;;;;;;;;42.33;36.67;;;;;;;;5084463;27;45585;-56
2024/03/22 05:11:35;;;;;;;;;46.33;38.67;;;;;;;;5083130;27;45372;-55
2024/03/22 05:14:00;;;;;;;;;48.33;37.33;;;;;;;;5086148;27;45315;-55
2024/03/22 05:16:25;;;;;;;;;46.67;37.00;;;;;;;;5086796;27;45693;-55
2024/03/22 05:18:50;;;;;;;;;45.33;38.00;;;;;;;;5084983;27;45266;-56
2024/03/22 05:21:15;;;;;;;;;48.67;38.67;;;;;;;;5087526;27;45502;-55
2024/03/22 05:23:41;;;;;;;;;47.67;35.33;;;;;;;;5085729;27;45566;-54
2024/03/22 05:26:06;;;;;;;;;50.00;41.67;;;;;;;;5087377;27;46543;-56
2024/03/22 05:28:31;;;;;;;;;43.67;38.00;;;;;;;;5080578;27;45418;-55
2024/03/22 05:30:56;;;;;;;;;42.00;36.33;;;;;;;;5087503;27;45588;-56
2024/03/22 05:33:21;;;;;;;;;42.67;36.67;;;;;;;;5086038;27;45485;-55
2024/03/22 05:35:46;;;;;;;;;46.67;36.33;;;;;;;;5085683;27;45476;-55
2024/03/22 05:38:12;;;;;;;;;44.33;37.67;;;;;;;;5085436;27;45354;-56
2024/03/22 05:40:38;;;;;;;;;46.33;38.67;;;;;;;;5090698;27;45488;-56
2024/03/22 05:43:03;;;;;;;;;48.33;38.67;;;;;;;;5089211;27;45452;-55
2024/03/22 05:45:29;;;;;;;;;46.00;38.00;;;;;;;;5079364;27;46432;-56
2024/03/22 05:47:54;;;;;;;;;53.00;41.33;;;;;;;;5083437;27;45915;-55
2024/03/22 05:50:20;;;;;;;;;47.33;38.00;;;;;;;;5081657;27;45272;-55
2024/03/22 05:52:45;;;;;;;;;51.67;41.00;;;;;;;;5082484;27;45627;-55
2024/03/22 05:55:10;;;;;;;;;46.33;36.00;;;;;;;;5086717;27;46365;-55
2024/03/22 05:57:35;;;;;;;;;51.00;41.50;;;;;;;;5089657;27;45902;-55
2024/03/22 06:00:01;;;;;;;;;46.00;39.00;;;;;;;;5082947;27;45207;-55
2024/03/22 06:02:27;;;;;;;;;52.67;40.33;;;;;;;;5089694;27;45459;-55
2024/03/22 06:04:52;;;;;;;;;48.00;38.00;;;;;;;;5086402;27;46047;-55
2024/03/22 06:07:17;;;;;;;;;49.67;39.33;;;;;;;;5085771;27;45595;-55
2024/03/22 06:09:45;;;;;;;;;46.33;36.67;;;;;;;;5087869;27;45474;-55
2024/03/22 06:12:17;;;;;;;;;51.67;40.33;;;;;;;;5080058;27;45677;-56
2024/03/22 06:14:43;;;;;;;;;45.33;39.00;;;;;;;;5079394;28;47578;-55
2024/03/22 06:17:08;;;;;;;;;53.67;41.33;;;;;;;;5073482;27;45358;-54
2024/03/22 06:19:34;;;;;;;;;51.25;41.50;;;;;;;;5072393;28;45334;-55
2024/03/22 06:21:59;;;;;;;;;49.25;41.00;;;;;;;;5080657;28;45388;-56
2024/03/22 06:24:25;;;;;;;;;47.33;37.67;;;;;;;;5080174;27;45437;-56
2024/03/22 06:26:50;;;;;;;;;49.33;41.33;;;;;;;;5076165;27;45346;-56
2024/03/22 06:29:16;;;;;;;;;49.67;38.33;;;;;;;;5079721;27;45449;-56
2024/03/22 06:31:41;;;;;;;;;53.00;41.00;;;;;;;;5079902;27;45575;-56
2024/03/22 06:34:06;;;;;;;;;42.33;36.67;;;;;;;;5077650;27;46241;-56
2024/03/22 06:36:32;;;;;;;;;49.33;41.33;;;;;;;;5077905;27;45606;-55
2024/03/22 06:38:58;;;;;;;;;51.00;42.00;;;;;;;;5076120;28;45687;-56
2024/03/22 06:41:24;;;;;;;;;52.00;41.33;;;;;;;;5075250;27;45356;-55
2024/03/22 06:43:49;;;;;;;;;49.67;41.00;;;;;;;;5077290;28;47221;-52
2024/03/22 06:46:14;;;;;;;;;52.33;42.00;;;;;;;;5074517;27;45418;-57
2024/03/22 06:48:39;;;;;;;;;52.33;41.00;;;;;;;;5078282;27;45344;-57
2024/03/22 06:51:04;;;;;;;;;54.67;41.00;;;;;;;;5077266;27;45464;-56
2024/03/22 06:53:30;;;;;;;;;48.33;38.67;;;;;;;;5079418;28;46492;-57
2024/03/22 06:55:55;;;;;;;;;51.00;40.33;;;;;;;;5080108;27;45218;-57
2024/03/22 06:58:20;;;;;;;;;49.00;40.33;;;;;;;;5078388;28;45239;-57
2024/03/22 07:00:45;;;;;;;;;47.00;40.33;;;;;;;;5076230;28;45322;-57
2024/03/22 07:03:11;;;;;;;;;51.33;40.00;;;;;;;;5075982;27;45307;-57
2024/03/22 07:05:36;;;;;;;;;54.67;42.67;;;;;;;;5077043;27;45290;-57
2024/03/22 07:08:01;;;;;;;;;52.33;41.33;;;;;;;;5079581;27;45621;-57
2024/03/22 07:10:27;;;;;;;;;54.67;43.33;;;;;;;;5082605;27;45589;-57
2024/03/22 07:12:56;;;;;;;;;51.67;43.33;;;;;;;;5087240;27;46275;-57
2024/03/22 07:15:24;;;;;;;;;52.00;41.67;;;;;;;;5079017;27;45497;-57
2024/03/22 07:17:50;;;;;;;;;52.33;44.33;;;;;;;;5080575;27;45247;-57
2024/03/22 07:20:15;;;;;;;;;52.33;40.67;;;;;;;;5093993;27;45344;-57
2024/03/22 07:22:40;;;;;;;;;48.33;38.33;;;;;;;;5079551;27;46421;-58
2024/03/22 07:25:06;;;;;;;;;50.00;42.67;;;;;;;;5078315;27;45276;-58
2024/03/22 07:27:31;;;;;;;;;51.00;42.67;;;;;;;;5087851;27;46239;-58
2024/03/22 07:29:57;;;;;;;;;52.00;42.67;;;;;;;;5077894;27;45895;-58
2024/03/22 07:32:22;;;;;;;;;55.33;44.00;;;;;;;;5079000;27;46594;-58
2024/03/22 07:34:47;;;;;;;;;52.00;41.00;;;;;;;;5081829;27;45463;-58
2024/03/22 07:37:12;;;;;;;;;53.67;43.67;;;;;;;;5078287;27;45437;-58
2024/03/22 07:39:38;;;;;;;;;53.75;43.75;;;;;;;;5075808;27;45493;-58
2024/03/22 07:42:03;;;;;;;;;55.67;44.00;;;;;;;;5076018;27;46896;-58
2024/03/22 07:44:28;;;;;;;;;55.33;46.33;;;;;;;;5078816;27;46008;-58
2024/03/22 07:46:55;;;;;;;;;52.67;43.33;;;;;;;;5076187;27;45490;-58
2024/03/22 07:49:21;;;;;;;;;54.00;44.00;;;;;;;;5083493;27;45416;-58
2024/03/22 07:51:46;;;;;;;;;58.25;46.25;;;;;;;;5073704;27;45827;-58
2024/03/22 07:54:11;;;;;;;;;53.67;43.67;;;;;;;;5077905;27;45531;-58
2024/03/22 07:56:36;;;;;;;;;59.67;44.00;;;;;;;;5080824;27;45508;-58
2024/03/22 07:59:02;;;;;;;;;51.33;42.67;;;;;;;;5073276;27;45847;-59
2024/03/22 08:01:27;;;;;;;;;51.33;40.33;;;;;;;;5073172;27;46515;-57
2024/03/22 08:03:52;;;;;;;;;51.00;41.67;;;;;;;;5076326;27;45514;-56
2024/03/22 08:06:17;;;;;;;;;58.00;45.67;;;;;;;;5077126;27;45330;-57
2024/03/22 08:08:43;;;;;;;;;58.00;43.33;;;;;;;;5083700;27;45626;-58
2024/03/22 08:11:09;;;;;;;;;50.67;41.33;;;;;;;;5077715;27;46526;-57
2024/03/22 08:13:34;;;;;;;;;52.33;41.67;;;;;;;;5077111;27;45389;-57
2024/03/22 08:15:59;;;;;;;;;50.00;41.00;;;;;;;;5074297;27;45363;-57
2024/03/22 08:18:25;;;;;;;;;52.67;43.67;;;;;;;;5076313;27;45235;-53
2024/03/22 08:20:50;;;;;;;;;52.00;41.67;;;;;;;;5076977;27;45458;-58
2024/03/22 08:23:17;;;;;;;;;52.00;41.67;;;;;;;;5079542;27;45443;-58
2024/03/22 08:25:42;;;;;;;;;50.00;41.33;;;;;;;;5081128;27;45421;-58
2024/03/22 08:28:08;;;;;;;;;51.00;40.67;;;;;;;;5080304;27;45619;-55
2024/03/22 08:30:33;;;;;;;;;50.33;39.67;;;;;;;;5068789;27;45754;-58
2024/03/22 08:32:58;;;;;;;;;54.00;40.67;;;;;;;;5079409;27;45457;-58
2024/03/22 08:35:23;;;;;;;;;55.67;43.00;;;;;;;;5079467;27;46297;-58
2024/03/22 08:37:48;;;;;;;;;52.33;41.33;;;;;;;;5079253;27;45516;-58
2024/03/22 08:40:14;;;;;;;;;50.33;41.67;;;;;;;;5082335;27;46534;-58
2024/03/22 08:42:39;;;;;;;;;54.67;41.67;;;;;;;;5081907;27;45658;-58
2024/03/22 08:45:04;;;;;;;;;52.33;41.67;;;;;;;;5080889;27;45519;-57
2024/03/22 08:47:31;;;;;;;;;46.00;38.67;;;;;;;;5078957;27;45498;-57
2024/03/22 08:49:57;;;;;;;;;52.00;41.67;;;;;;;;5083004;27;46243;-58
2024/03/22 08:52:23;;;;;;;;;49.00;40.33;;;;;;;;5081040;27;45520;-58
2024/03/22 08:54:49;;;;;;;;;57.00;46.33;;;;;;;;5081397;27;45504;-58
2024/03/22 08:57:14;;;;;;;;;46.67;40.00;;;;;;;;5080036;27;45364;-58
2024/03/22 08:59:40;;;;;;;;;51.33;39.00;;;;;;;;5077192;27;45925;-57
2024/03/22 09:02:05;;;;;;;;;53.33;42.67;;;;;;;;5076983;27;45436;-58
2024/03/22 09:04:30;;;;;;;;;52.00;41.00;;;;;;;;5077239;27;45307;-58
2024/03/22 09:06:55;;;;;;;;;51.67;39.67;;;;;;;;5080461;27;45357;-58
2024/03/22 09:09:21;;;;;;;;;49.00;40.67;;;;;;;;5077708;27;47960;-57
2024/03/22 09:11:46;;;;;;;;;59.67;46.67;;;;;;;;5081946;27;45287;-57
2024/03/22 09:14:11;;;;;;;;;51.00;40.67;;;;;;;;5085617;27;45456;-57
2024/03/22 09:16:36;;;;;;;;;51.00;40.67;;;;;;;;5087089;27;45357;-58
2024/03/22 09:19:02;;;;;;;;;49.67;41.00;;;;;;;;5080953;27;45370;-58
2024/03/22 09:21:27;;;;;;;;;46.33;39.33;;;;;;;;5085571;27;45548;-58
2024/03/22 09:23:52;;;;;;;;;44.00;38.33;;;;;;;;5079270;27;45419;-58
2024/03/22 09:26:17;;;;;;;;;44.00;36.67;;;;;;;;5080637;27;45400;-58
2024/03/22 09:28:45;;;;;;;;;39.33;34.00;;;;;;;;5076400;27;46366;-58
2024/03/22 09:31:11;;;;;;;;;34.00;31.67;;;;;;;;5080372;27;45597;-58
2024/03/22 09:33:36;;;;;;;;;40.00;31.33;;;;;;;;5085371;27;45410;-58
2024/03/22 09:36:01;;;;;;;;;33.00;31.33;;;;;;;;5082855;27;45488;-58
2024/03/22 09:38:27;;;;;;;;;39.00;33.67;;;;;;;;5081254;27;45354;-58
2024/03/22 09:40:54;;;;;;;;;43.67;34.33;;;;;;;;5080926;27;45300;-58
2024/03/22 09:43:20;;;;;;;;;49.33;35.67;;;;;;;;5086967;27;45307;-58
2024/03/22 09:45:45;;;;;;;;;37.33;33.00;;;;;;;;5087896;27;45388;-58
2024/03/22 09:48:11;;;;;;;;;41.00;35.67;;;;;;;;5093755;27;45578;-57
2024/03/22 09:50:36;;;;;;;;;46.00;36.00;;;;;;;;5088683;27;45272;-58
2024/03/22 09:53:02;;;;;;;;;39.00;34.33;;;;;;;;5094138;27;45218;-59
2024/03/22 09:55:28;;;;;;;;;36.00;33.00;;;;;;;;5088300;27;45299;-58
2024/03/22 09:57:54;;;;;;;;;35.67;30.67;;;;;;;;5094298;27;45848;-58
2024/03/22 10:00:21;;;;;;;;;41.33;36.00;;;;;;;;5087906;27;45333;-58
2024/03/22 10:02:47;;;;;;;;;33.33;31.33;;;;;;;;5074418;27;45311;-57
2024/03/22 10:05:12;;;;;;;;;38.00;34.00;;;;;;;;5086902;27;45304;-57
2024/03/22 10:07:38;;;;;;;;;34.33;31.67;;;;;;;;5095122;27;45287;-57
2024/03/22 10:10:03;;;;;;;;;39.67;33.33;;;;;;;;5087910;27;45218;-57
2024/03/22 10:12:28;;;;;;;;;44.00;36.00;;;;;;;;5087947;27;45221;-57
2024/03/22 10:14:54;;;;;;;;;45.00;36.00;;;;;;;;5088311;27;45210;-57
2024/03/22 10:17:19;;;;;;;;;38.33;34.33;;;;;;;;5087464;27;45365;-58
2024/03/22 10:19:44;;;;;;;;;38.33;33.33;;;;;;;;5086096;27;45357;-55
2024/03/22 10:22:10;;;;;;;;;40.00;32.33;;;;;;;;5073079;27;45353;-55
2024/03/22 10:24:35;;;;;;;;;43.67;33.00;;;;;;;;5079792;27;46185;-55
2024/03/22 10:27:00;;;;;;;;;37.00;33.00;;;;;;;;5086086;27;45333;-55
2024/03/22 10:29:26;;;;;;;;;34.33;32.00;;;;;;;;5081358;27;45415;-55
2024/03/22 10:31:51;;;;;;;;;35.33;33.00;;;;;;;;5075030;27;45235;-55
2024/03/22 10:34:17;;;;;;;;;33.67;28.67;;;;;;;;5088238;27;45381;-55
2024/03/22 10:36:43;;;;;;;;;38.67;33.33;;;;;;;;5082345;27;45656;-56
2024/03/22 10:39:08;;;;;;;;;34.33;31.33;;;;;;;;5081509;27;45515;-55
2024/03/22 10:41:34;;;;;;;;;35.67;31.33;;;;;;;;5088274;27;45523;-55
2024/03/22 10:43:59;;;;;;;;;35.67;32.33;;;;;;;;5082463;27;45551;-54
2024/03/22 10:46:30;;;;;;;;;37.67;32.00;;;;;;;;5087527;27;45431;-55
2024/03/22 10:48:56;;;;;;;;;38.67;32.00;;;;;;;;5075986;27;45466;-55
2024/03/22 10:51:23;;;;;;;;;37.33;33.33;;;;;;;;5078579;27;45500;-55
2024/03/22 10:53:49;;;;;;;;;32.67;30.67;;;;;;;;5074227;27;46558;-55
2024/03/22 10:56:16;;;;;;;;;42.00;33.00;;;;;;;;5080052;27;45824;-57
2024/03/22 10:58:42;;;;;;;;;32.67;30.00;;;;;;;;5078654;27;45300;-55
2024/03/22 11:01:21;;;;;;;;;32.67;30.00;;;;;;;;5076008;27;45565;-56
2024/03/22 11:03:46;;;;;;;;;30.33;28.67;;;;;;;;5074404;27;45400;-55
2024/03/22 11:06:11;;;;;;;;;28.67;27.33;;;;;;;;5075477;27;46268;-56
2024/03/22 11:08:37;;;;;;;;;25.67;25.33;;;;;;;;5074912;27;45327;-56
2024/03/22 11:11:11;;;;;;;;;31.00;29.67;;;;;;;;5076338;27;45248;-57
2024/03/22 11:13:38;;;;;;;;;31.33;29.33;;;;;;;;5071555;27;45661;-56
2024/03/22 11:16:04;;;;;;;;;31.67;29.67;;;;;;;;5066998;27;46079;-56
2024/03/22 11:18:29;;;;;;;;;32.00;29.00;;;;;;;;5075138;27;45447;-56
2024/03/22 11:20:54;;;;;;;;;35.67;31.33;;;;;;;;5074787;27;45357;-57
2024/03/22 11:23:20;;;;;;;;;27.33;27.33;;;;;;;;5078751;27;45641;-56
2024/03/22 11:25:46;;;;;;;;;30.33;26.33;;;;;;;;5070578;27;47886;-56
2024/03/22 11:28:11;;;;;;;;;28.00;26.67;;;;;;;;5078726;27;45621;-57
2024/03/22 11:30:37;;;;;;;;;31.33;28.33;;;;;;;;5069188;27;45505;-56
2024/03/22 11:33:02;;;;;;;;;28.33;27.33;;;;;;;;5074352;27;45600;-57
2024/03/22 11:35:28;;;;;;;;;33.00;29.00;;;;;;;;5075741;27;46257;-56
2024/03/22 11:37:53;;;;;;;;;30.33;26.33;;;;;;;;5076708;27;45886;-57
2024/03/22 11:40:18;;;;;;;;;30.33;28.67;;;;;;;;5072155;27;45264;-57
2024/03/22 11:42:49;;;;;;;;;28.00;25.33;;;;;;;;5075529;27;45403;-57
2024/03/22 11:45:16;;;;;;;;;19.00;17.67;;;;;;;;5075477;27;46586;-56
2024/03/22 11:47:41;;;;;;;;;25.67;25.33;;;;;;;;5076473;27;45424;-57
2024/03/22 11:50:06;;;;;;;;;26.00;23.00;;;;;;;;5074879;27;45793;-56
2024/03/22 11:52:32;;;;;;;;;28.67;28.67;;;;;;;;5075649;27;45930;-56
2024/03/22 11:54:57;;;;;;;;;21.67;21.67;;;;;;;;5076022;27;45568;-57
2024/03/22 11:57:23;;;;;;;;;27.67;26.67;;;;;;;;5070823;27;45426;-56
2024/03/22 11:59:48;;;;;;;;;26.00;26.00;;;;;;;;5076693;27;45172;-56
2024/03/22 12:02:13;;;;;;;;;30.33;26.67;;;;;;;;5077914;27;45329;-57
2024/03/22 12:04:47;;;;;;;;;26.33;26.33;;;;;;;;5090200;27;46549;-57
2024/03/22 12:07:13;;;;;;;;;26.00;26.00;;;;;;;;5077627;27;45323;-57
2024/03/22 12:09:39;;;;;;;;;29.33;24.67;;;;;;;;5077512;27;45370;-56
2024/03/22 12:12:07;;;;;;;;;25.33;24.33;;;;;;;;5078019;27;46350;-59
2024/03/22 12:14:32;;;;;;;;;27.67;25.00;;;;;;;;5076790;27;45531;-56
2024/03/22 12:16:58;;;;;;;;;29.33;27.00;;;;;;;;5076196;27;45649;-56
2024/03/22 12:19:24;;;;;;;;;24.33;23.67;;;;;;;;5074822;27;45506;-57
2024/03/22 12:21:49;;;;;;;;;22.67;22.67;;;;;;;;5076588;27;45541;-57
2024/03/22 12:24:14;;;;;;;;;25.67;25.33;;;;;;;;5078143;27;46205;-56
2024/03/22 12:26:39;;;;;;;;;25.33;24.33;;;;;;;;5078500;27;45506;-56
2024/03/22 12:29:05;;;;;;;;;27.67;24.67;;;;;;;;5077987;27;45417;-56
2024/03/22 12:31:31;;;;;;;;;27.00;26.00;;;;;;;;5070787;27;45378;-56
2024/03/22 12:33:56;;;;;;;;;21.67;21.33;;;;;;;;5092671;27;46943;-56
2024/03/22 12:36:21;;;;;;;;;25.67;23.33;;;;;;;;5097394;27;45442;-56
2024/03/22 12:38:46;;;;;;;;;23.33;22.33;;;;;;;;5095963;27;45259;-56
2024/03/22 12:41:11;;;;;;;;;28.67;26.33;;;;;;;;5088345;27;45299;-56
2024/03/22 12:43:37;;;;;;;;;27.00;26.00;;;;;;;;5091275;27;46855;-56
2024/03/22 12:46:02;;;;;;;;;22.67;22.33;;;;;;;;5089371;27;45616;-56
2024/03/22 12:48:28;;;;;;;;;23.33;22.33;;;;;;;;5094379;27;45461;-56
2024/03/22 12:50:53;;;;;;;;;22.67;20.33;;;;;;;;5090637;27;45475;-56
2024/03/22 12:53:18;;;;;;;;;18.67;18.67;;;;;;;;5080189;27;46966;-56
2024/03/22 12:55:43;;;;;;;;;23.00;22.33;;;;;;;;5082791;27;45492;-57
2024/03/22 12:58:08;;;;;;;;;22.67;21.67;;;;;;;;5082918;27;45578;-56
2024/03/22 13:00:34;;;;;;;;;24.00;23.00;;;;;;;;5085329;27;45211;-56
2024/03/22 13:02:59;;;;;;;;;25.33;24.00;;;;;;;;5080594;27;46194;-56
2024/03/22 13:05:25;;;;;;;;;23.67;23.00;;;;;;;;5066990;28;45421;-57
2024/03/22 13:07:50;;;;;;;;;19.67;19.67;;;;;;;;5081782;27;45258;-58
2024/03/22 13:10:16;;;;;;;;;24.67;21.33;;;;;;;;5080716;28;45308;-58
2024/03/22 13:12:42;;;;;;;;;28.67;21.33;;;;;;;;5081579;27;47245;-56
2024/03/22 13:15:07;;;;;;;;;19.33;19.33;;;;;;;;5078725;27;45230;-57
2024/03/22 13:17:32;;;;;;;;;22.00;22.00;;;;;;;;5074875;28;45236;-57
2024/03/22 13:20:10;;;;;;;;;20.33;17.33;;;;;;;;5072514;27;46431;-57
2024/03/22 13:22:36;;;;;;;;;23.33;18.67;;;;;;;;5075207;27;45682;-56
2024/03/22 13:25:06;;;;;;;;;19.67;19.33;;;;;;;;5077017;27;45469;-55
2024/03/22 13:27:31;;;;;;;;;18.67;18.67;;;;;;;;5072314;27;45610;-54
2024/03/22 13:29:56;;;;;;;;;21.33;15.33;;;;;;;;5072063;27;45496;-54
2024/03/22 13:32:21;;;;;;;;;16.33;14.00;;;;;;;;5075064;27;46356;-54
2024/03/22 13:34:46;;;;;;;;;15.33;13.33;;;;;;;;5077880;27;45657;-53
2024/03/22 13:37:12;;;;;;;;;21.00;20.00;;;;;;;;5071263;27;45402;-53
2024/03/22 13:39:37;;;;;;;;;18.67;18.67;;;;;;;;5077893;27;45325;-53
2024/03/22 13:42:02;;;;;;;;;17.00;13.67;;;;;;;;5079638;27;46402;-53
2024/03/22 13:44:28;;;;;;;;;13.00;13.00;;;;;;;;5073383;27;45500;-53
2024/03/22 13:46:54;;;;;;;;;18.00;18.00;;;;;;;;5066705;27;45470;-52
2024/03/22 13:49:20;;;;;;;;;13.00;13.00;;;;;;;;5072201;27;45490;-52
2024/03/22 13:51:46;;;;;;;;;14.00;12.33;;;;;;;;5075761;27;46203;-52
2024/03/22 13:54:12;;;;;;;;;14.67;12.67;;;;;;;;5072381;27;45876;-52
2024/03/22 13:56:37;;;;;;;;;17.67;13.33;;;;;;;;5079469;27;45358;-52
2024/03/22 13:59:05;;;;;;;;;13.33;13.33;;;;;;;;5068307;27;45501;-53
2024/03/22 14:01:30;;;;;;;;;14.00;14.00;;;;;;;;5068554;27;46501;-52
2024/03/22 14:03:55;;;;;;;;;17.00;15.67;;;;;;;;5079557;27;45325;-52
2024/03/22 14:06:20;;;;;;;;;12.00;11.00;;;;;;;;5078477;27;45475;-51